createdAt,value
2017-07-23T00:01:04.095Z,18.40
2017-07-23T00:03:31.248Z,16.33
2017-07-23T00:05:58.432Z,15.03
2017-07-23T00:08:25.658Z,16.33
2017-07-23T00:10:52.822Z,16.67
2017-07-23T00:13:20.272Z,20.10
2017-07-23T00:15:47.431Z,17.00
2017-07-23T00:18:14.670Z,17.37
2017-07-23T00:20:41.866Z,17.50
2017-07-23T00:23:09.019Z,16.40
2017-07-23T00:25:36.185Z,16.50
2017-07-23T00:28:03.386Z,17.53
2017-07-23T00:30:30.537Z,16.57
2017-07-23T00:32:57.705Z,19.23
2017-07-23T00:35:24.901Z,18.47
2017-07-23T00:37:52.071Z,19.20
2017-07-23T00:40:19.224Z,16.50
2017-07-23T00:42:46.404Z,15.33
2017-07-23T00:45:13.556Z,16.87
2017-07-23T00:47:40.708Z,18.23
2017-07-23T00:50:07.901Z,16.57
2017-07-23T00:52:35.720Z,16.70
2017-07-23T00:55:02.877Z,19.27
2017-07-23T00:57:30.082Z,17.70
2017-07-23T00:59:57.227Z,17.57
2017-07-23T01:02:24.392Z,27.80
2017-07-23T01:04:51.589Z,16.00
2017-07-23T01:07:18.738Z,18.90
2017-07-23T01:09:45.893Z,16.10
2017-07-23T01:12:13.096Z,16.50
2017-07-23T01:14:40.252Z,16.47
2017-07-23T01:17:07.409Z,16.57
2017-07-23T01:19:34.593Z,20.50
2017-07-23T01:22:01.755Z,15.50
2017-07-23T01:24:28.920Z,15.90
2017-07-23T01:26:56.097Z,16.70
2017-07-23T01:29:23.541Z,15.80
2017-07-23T01:31:50.692Z,20.13
2017-07-23T01:34:17.868Z,17.43
2017-07-23T01:36:45.023Z,23.10
2017-07-23T01:39:12.183Z,44.20
2017-07-23T01:41:39.356Z,23.63
2017-07-23T01:44:06.508Z,25.07
2017-07-23T01:46:33.674Z,17.77
2017-07-23T01:49:00.860Z,17.07
2017-07-23T01:51:28.028Z,20.87
2017-07-23T01:53:55.191Z,17.80
2017-07-23T01:56:22.378Z,18.50
2017-07-23T01:58:49.535Z,18.47
2017-07-23T02:01:16.702Z,23.03
2017-07-23T02:03:43.889Z,16.10
2017-07-23T02:06:11.049Z,16.67
2017-07-23T02:08:38.216Z,19.13
2017-07-23T02:11:06.080Z,25.00
2017-07-23T02:13:33.237Z,22.00
2017-07-23T02:16:00.397Z,15.87
2017-07-23T02:18:27.593Z,24.40
2017-07-23T02:20:54.738Z,16.40
2017-07-23T02:23:21.899Z,19.27
2017-07-23T02:25:49.072Z,13.53
2017-07-23T02:28:16.220Z,14.57
2017-07-23T02:30:43.372Z,9.90
2017-07-23T02:33:10.552Z,8.13
2017-07-23T02:35:37.707Z,8.43
2017-07-23T02:38:04.867Z,5.77
2017-07-23T02:40:32.051Z,7.53
2017-07-23T02:42:59.204Z,6.83
2017-07-23T02:45:26.345Z,5.20
2017-07-23T02:47:53.513Z,7.50
2017-07-23T02:50:20.658Z,5.90
2017-07-23T02:52:47.819Z,6.00
2017-07-23T02:55:15.003Z,5.53
2017-07-23T02:57:42.160Z,14.10
2017-07-23T03:00:09.304Z,7.23
2017-07-23T03:02:36.500Z,5.17
2017-07-23T03:05:03.644Z,5.83
2017-07-23T03:07:30.789Z,4.60
2017-07-23T03:09:57.952Z,6.30
2017-07-23T03:12:25.092Z,4.17
2017-07-23T03:14:52.246Z,8.60
2017-07-23T03:17:19.420Z,51.20
2017-07-23T03:19:46.567Z,22.67
2017-07-23T03:22:13.728Z,13.93
2017-07-23T03:24:40.915Z,14.23
2017-07-23T03:27:08.067Z,13.00
2017-07-23T03:29:35.231Z,14.50
2017-07-23T03:32:02.409Z,9.20
2017-07-23T03:34:29.549Z,10.33
2017-07-23T03:36:56.693Z,9.30
2017-07-23T03:39:23.860Z,7.40
2017-07-23T03:41:51.016Z,6.80
2017-07-23T03:44:18.160Z,6.43
2017-07-23T03:46:45.334Z,8.70
2017-07-23T03:49:12.484Z,5.10
2017-07-23T03:51:39.628Z,9.60
2017-07-23T03:54:06.808Z,9.10
2017-07-23T03:56:33.956Z,11.80
2017-07-23T03:59:01.104Z,11.57
2017-07-23T04:01:28.286Z,6.80
2017-07-23T04:03:55.445Z,10.40
2017-07-23T04:06:22.608Z,10.10
2017-07-23T04:08:49.791Z,10.53
2017-07-23T04:11:16.945Z,10.83
2017-07-23T04:13:44.093Z,12.83
2017-07-23T04:16:11.267Z,9.13
2017-07-23T04:18:38.421Z,11.33
2017-07-23T04:21:05.573Z,9.93
2017-07-23T04:23:32.773Z,7.83
2017-07-23T04:25:59.925Z,40.30
2017-07-23T04:28:27.068Z,29.27
2017-07-23T04:30:54.258Z,14.60
2017-07-23T04:33:21.400Z,15.30
2017-07-23T04:35:48.630Z,10.97
2017-07-23T04:38:15.828Z,10.30
2017-07-23T04:40:43.069Z,7.50
2017-07-23T04:43:10.217Z,5.87
2017-07-23T04:45:37.387Z,8.03
2017-07-23T04:48:04.580Z,5.37
2017-07-23T04:50:31.742Z,5.30
2017-07-23T04:52:58.925Z,10.53
2017-07-23T04:55:26.073Z,15.70
2017-07-23T04:57:53.219Z,9.03
2017-07-23T05:00:20.397Z,7.50
2017-07-23T05:02:47.554Z,11.87
2017-07-23T05:05:14.701Z,7.03
2017-07-23T05:07:41.869Z,8.33
2017-07-23T05:10:09.026Z,7.80
2017-07-23T05:12:36.176Z,12.90
2017-07-23T05:15:03.469Z,10.50
2017-07-23T05:17:30.729Z,7.33
2017-07-23T05:19:57.879Z,7.77
2017-07-23T05:22:25.072Z,5.63
2017-07-23T05:24:52.232Z,10.20
2017-07-23T05:27:19.394Z,6.60
2017-07-23T05:29:46.891Z,7.60
2017-07-23T05:32:14.035Z,8.83
2017-07-23T05:34:41.181Z,7.83
2017-07-23T05:37:08.651Z,8.00
2017-07-23T05:39:35.914Z,12.60
2017-07-23T05:42:02.901Z,23.50
2017-07-23T05:44:30.081Z,14.73
2017-07-23T05:46:57.235Z,21.80
2017-07-23T05:49:24.411Z,11.10
2017-07-23T05:51:51.628Z,17.50
2017-07-23T05:54:18.793Z,12.70
2017-07-23T05:56:45.952Z,18.30
2017-07-23T05:59:13.136Z,11.33
2017-07-23T06:01:40.276Z,10.93
2017-07-23T06:04:07.438Z,16.37
2017-07-23T06:06:34.633Z,9.80
2017-07-23T06:09:01.836Z,31.43
2017-07-23T06:11:28.985Z,9.00
2017-07-23T06:13:56.188Z,8.87
2017-07-23T06:16:23.340Z,13.23
2017-07-23T06:18:50.310Z,7.10
2017-07-23T06:21:17.518Z,12.80
2017-07-23T06:23:45.335Z,8.40
2017-07-23T06:26:12.481Z,7.07
2017-07-23T06:28:39.661Z,11.43
2017-07-23T06:31:06.821Z,7.63
2017-07-23T06:33:33.972Z,15.13
2017-07-23T06:36:01.429Z,9.70
2017-07-23T06:38:28.588Z,9.13
2017-07-23T06:40:55.745Z,11.07
2017-07-23T06:43:22.940Z,8.80
2017-07-23T06:45:50.092Z,14.40
2017-07-23T06:48:17.246Z,17.33
2017-07-23T06:50:44.432Z,11.60
2017-07-23T06:53:11.585Z,14.33
2017-07-23T06:55:38.756Z,14.87
2017-07-23T06:58:05.964Z,61.50
2017-07-23T07:00:33.136Z,30.50
2017-07-23T07:03:00.296Z,28.27
2017-07-23T07:05:27.519Z,13.03
2017-07-23T07:07:54.690Z,9.40
2017-07-23T07:10:21.842Z,10.50
2017-07-23T07:12:49.027Z,7.80
2017-07-23T07:15:16.178Z,7.17
2017-07-23T07:17:43.335Z,9.50
2017-07-23T07:20:11.315Z,6.10
2017-07-23T07:22:38.565Z,7.20
2017-07-23T07:25:05.715Z,7.93
2017-07-23T07:27:32.869Z,9.10
2017-07-23T07:30:00.043Z,6.00
2017-07-23T07:32:27.187Z,6.47
2017-07-23T07:34:54.354Z,7.53
2017-07-23T07:37:21.986Z,7.27
2017-07-23T07:39:49.148Z,18.57
2017-07-23T07:42:16.138Z,30.40
2017-07-23T07:44:43.391Z,25.10
2017-07-23T07:47:10.582Z,15.23
2017-07-23T07:49:37.852Z,22.93
2017-07-23T07:52:05.034Z,10.57
2017-07-23T07:54:32.224Z,11.80
2017-07-23T07:56:59.970Z,11.63
2017-07-23T07:59:28.103Z,11.00
2017-07-23T08:01:55.645Z,8.55
2017-07-23T08:04:23.375Z,7.70
2017-07-23T08:06:50.558Z,4.20
2017-07-23T08:09:17.727Z,4.75
2017-07-23T08:11:44.891Z,4.30
2017-07-23T08:14:12.084Z,3.30
2017-07-23T08:16:39.235Z,4.72
2017-07-23T08:19:06.438Z,10.23
2017-07-23T08:21:33.612Z,8.93
2017-07-23T08:24:00.793Z,11.80
2017-07-23T08:26:27.971Z,11.70
2017-07-23T08:28:55.524Z,28.23
2017-07-23T08:31:22.682Z,8.02
2017-07-23T08:33:49.850Z,18.67
2017-07-23T08:36:17.030Z,10.10
2017-07-23T08:38:44.187Z,6.35
2017-07-23T08:41:11.352Z,21.27
2017-07-23T08:43:38.683Z,5.43
2017-07-23T08:46:05.851Z,8.77
2017-07-23T08:48:33.005Z,4.00
2017-07-23T08:51:00.801Z,3.90
2017-07-23T08:53:28.536Z,4.07
2017-07-23T08:55:55.677Z,2.33
2017-07-23T08:58:23.436Z,2.60
2017-07-23T09:00:51.168Z,3.20
2017-07-23T09:03:18.900Z,6.43
2017-07-23T09:05:46.658Z,5.53
2017-07-23T09:08:15.059Z,2.28
2017-07-23T09:10:42.919Z,2.45
2017-07-23T09:13:10.640Z,2.22
2017-07-23T09:15:38.360Z,2.50
2017-07-23T09:18:06.103Z,2.37
2017-07-23T09:20:33.651Z,2.50
2017-07-23T09:23:00.835Z,3.03
2017-07-23T09:25:28.009Z,6.00
2017-07-23T09:27:55.165Z,4.40
2017-07-23T09:30:22.964Z,3.75
2017-07-23T09:32:50.122Z,3.25
2017-07-23T09:35:17.295Z,3.47
2017-07-23T09:37:44.774Z,9.03
2017-07-23T09:40:11.936Z,2.60
2017-07-23T09:42:39.369Z,2.23
2017-07-23T09:45:06.911Z,1.80
2017-07-23T09:47:34.360Z,2.77
2017-07-23T09:50:01.800Z,1.90
2017-07-23T09:52:29.251Z,2.23
2017-07-23T09:54:56.702Z,2.27
2017-07-23T09:57:24.153Z,2.10
2017-07-23T09:59:51.619Z,3.50
2017-07-23T10:02:18.769Z,3.00
2017-07-23T10:04:45.937Z,3.65
2017-07-23T10:07:13.117Z,3.83
2017-07-23T10:09:40.837Z,2.25
2017-07-23T10:12:08.549Z,7.53
2017-07-23T10:14:36.302Z,2.95
2017-07-23T10:17:03.455Z,9.67
2017-07-23T10:19:30.660Z,10.10
2017-07-23T10:21:58.081Z,3.93
2017-07-23T10:24:25.266Z,4.13
2017-07-23T10:26:52.950Z,2.87
2017-07-23T10:29:20.182Z,4.53
2017-07-23T10:31:47.351Z,3.30
2017-07-23T10:34:14.496Z,5.17
2017-07-23T10:36:41.693Z,4.37
2017-07-23T10:39:08.865Z,9.40
2017-07-23T10:41:36.004Z,4.50
2017-07-23T10:44:03.206Z,3.53
2017-07-23T10:46:30.427Z,2.67
2017-07-23T10:48:57.616Z,3.27
2017-07-23T10:51:24.630Z,3.77
2017-07-23T10:53:51.873Z,2.97
2017-07-23T10:56:19.133Z,6.37
2017-07-23T10:58:46.330Z,15.63
2017-07-23T11:01:13.505Z,23.97
2017-07-23T11:03:40.677Z,21.47
2017-07-23T11:06:07.867Z,35.27
2017-07-23T11:08:35.037Z,21.80
2017-07-23T11:11:02.219Z,24.00
2017-07-23T11:13:29.440Z,67.87
2017-07-23T11:15:56.620Z,30.37
2017-07-23T11:18:23.784Z,8.43
2017-07-23T11:20:51.064Z,27.10
2017-07-23T11:23:18.326Z,9.83
2017-07-23T11:25:45.550Z,10.70
2017-07-23T11:28:12.751Z,14.83
2017-07-23T11:30:39.942Z,12.93
2017-07-23T11:33:07.133Z,10.63
2017-07-23T11:35:34.974Z,10.07
2017-07-23T11:38:02.158Z,4.83
2017-07-23T11:40:29.309Z,6.80
2017-07-23T11:42:56.792Z,5.00
2017-07-23T11:45:23.944Z,8.87
2017-07-23T11:47:51.126Z,4.63
2017-07-23T11:50:18.424Z,4.03
2017-07-23T11:52:45.585Z,6.43
2017-07-23T11:55:12.735Z,5.03
2017-07-23T11:57:39.936Z,8.23
2017-07-23T12:00:07.143Z,4.73
2017-07-23T12:02:34.321Z,3.00
2017-07-23T12:05:01.507Z,4.53
2017-07-23T12:07:28.654Z,3.57
2017-07-23T12:09:55.832Z,5.97
2017-07-23T12:12:23.028Z,5.77
2017-07-23T12:14:50.236Z,18.03
2017-07-23T12:17:17.412Z,24.77
2017-07-23T12:19:44.625Z,21.00
2017-07-23T12:22:11.791Z,16.57
2017-07-23T12:24:38.948Z,21.97
2017-07-23T12:27:06.911Z,22.20
2017-07-23T12:29:34.069Z,7.23
2017-07-23T12:32:01.265Z,6.23
2017-07-23T12:34:28.470Z,18.50
2017-07-23T12:36:55.762Z,8.47
2017-07-23T12:39:23.006Z,9.07
2017-07-23T12:41:50.163Z,6.50
2017-07-23T12:44:17.329Z,9.13
2017-07-23T12:46:44.666Z,20.23
2017-07-23T12:49:11.821Z,76.00
2017-07-23T12:51:38.979Z,65.33
2017-07-23T12:54:06.164Z,69.27
2017-07-23T12:56:33.332Z,14.00
2017-07-23T12:59:00.488Z,10.93
2017-07-23T13:01:27.688Z,24.33
2017-07-23T13:03:54.852Z,13.57
2017-07-23T13:06:22.002Z,9.97
2017-07-23T13:08:49.192Z,16.90
2017-07-23T13:11:16.400Z,19.20
2017-07-23T13:13:43.567Z,7.33
2017-07-23T13:16:10.769Z,6.20
2017-07-23T13:18:37.929Z,8.67
2017-07-23T13:21:05.209Z,5.93
2017-07-23T13:23:32.459Z,7.13
2017-07-23T13:25:59.617Z,6.43
2017-07-23T13:28:26.758Z,8.90
2017-07-23T13:30:53.966Z,5.07
2017-07-23T13:33:21.159Z,4.90
2017-07-23T13:35:48.300Z,3.87
2017-07-23T13:38:15.486Z,5.70
2017-07-23T13:40:42.632Z,4.03
2017-07-23T13:43:09.822Z,8.03
2017-07-23T13:45:36.998Z,5.80
2017-07-23T13:48:04.149Z,3.90
2017-07-23T13:50:31.300Z,4.17
2017-07-23T13:52:58.516Z,3.50
2017-07-23T13:55:25.716Z,4.57
2017-07-23T13:57:52.867Z,4.40
2017-07-23T14:00:20.058Z,4.73
2017-07-23T14:02:47.216Z,3.67
2017-07-23T14:05:14.374Z,15.90
2017-07-23T22:46:32.704Z,7.70
2017-07-23T22:48:59.370Z,9.00
2017-07-23T22:51:26.068Z,5.20
2017-07-23T22:53:52.733Z,6.70
2017-07-23T22:56:19.388Z,5.37
2017-07-23T22:58:46.308Z,11.50
2017-07-23T23:01:13.002Z,8.90
2017-07-23T23:03:39.734Z,4.60
2017-07-23T23:06:06.383Z,5.47
2017-07-23T23:08:33.229Z,11.70
2017-07-23T23:11:00.074Z,19.77
2017-07-23T23:13:26.800Z,17.77
2017-07-23T23:15:53.556Z,10.63
2017-07-23T23:18:20.197Z,11.30
2017-07-23T23:20:46.845Z,6.23
2017-07-23T23:23:13.507Z,5.47
2017-07-23T23:25:40.150Z,7.80
2017-07-23T23:28:06.849Z,6.37
2017-07-23T23:30:33.532Z,6.40
2017-07-23T23:33:00.174Z,4.93
2017-07-23T23:35:26.834Z,13.33
2017-07-23T23:37:53.529Z,6.40
2017-07-23T23:40:20.163Z,8.50
2017-07-23T23:42:46.804Z,6.53
2017-07-23T23:45:13.467Z,6.33
2017-07-23T23:47:40.181Z,6.40
2017-07-23T23:50:06.931Z,10.87
